sensor_id;sensor_type;location;lat;lon;timestamp;P1;durP1;ratioP1;P2;durP2;ratioP2
19262;SDS011;9765;52.354;20.884;2022-08-06T03:56:59;14.70;;;10.73;;
19262;SDS011;9765;52.354;20.884;2022-08-06T03:59:28;16.33;;;10.83;;
19262;SDS011;9765;52.354;20.884;2022-08-06T04:01:56;18.37;;;11.37;;
19262;SDS011;9765;52.354;20.884;2022-08-06T04:04:26;13.93;;;9.70;;
19262;SDS011;9765;52.354;20.884;2022-08-06T04:06:56;16.80;;;10.73;;
19262;SDS011;9765;52.354;20.884;2022-08-06T04:09:24;16.00;;;10.63;;
19262;SDS011;9765;52.354;20.884;2022-08-06T04:11:53;16.20;;;9.73;;
19262;SDS011;9765;52.354;20.884;2022-08-06T04:14:22;16.47;;;10.23;;
19262;SDS011;9765;52.354;20.884;2022-08-06T04:16:49;25.17;;;11.17;;
19262;SDS011;9765;52.354;20.884;2022-08-06T04:19:16;20.77;;;10.47;;
19262;SDS011;9765;52.354;20.884;2022-08-06T04:21:45;14.87;;;9.80;;
19262;SDS011;9765;52.354;20.884;2022-08-06T04:24:12;15.70;;;10.30;;
19262;SDS011;9765;52.354;20.884;2022-08-06T04:26:40;17.17;;;9.50;;
19262;SDS011;9765;52.354;20.884;2022-08-06T04:29:09;17.60;;;10.30;;
19262;SDS011;9765;52.354;20.884;2022-08-06T04:31:39;15.40;;;10.20;;
19262;SDS011;9765;52.354;20.884;2022-08-06T04:34:10;12.97;;;8.97;;
19262;SDS011;9765;52.354;20.884;2022-08-06T04:36:40;17.90;;;10.20;;
19262;SDS011;9765;52.354;20.884;2022-08-06T04:39:07;15.97;;;9.53;;
19262;SDS011;9765;52.354;20.884;2022-08-06T04:41:34;13.57;;;8.77;;
19262;SDS011;9765;52.354;20.884;2022-08-06T04:44:01;19.37;;;8.87;;
19262;SDS011;9765;52.354;20.884;2022-08-06T04:46:28;15.67;;;8.27;;
19262;SDS011;9765;52.354;20.884;2022-08-06T04:48:57;15.40;;;8.60;;
19262;SDS011;9765;52.354;20.884;2022-08-06T04:51:23;10.37;;;7.50;;
19262;SDS011;9765;52.354;20.884;2022-08-06T04:53:50;13.17;;;8.00;;
19262;SDS011;9765;52.354;20.884;2022-08-06T04:56:17;12.87;;;8.70;;
19262;SDS011;9765;52.354;20.884;2022-08-06T04:58:44;10.57;;;7.50;;
19262;SDS011;9765;52.354;20.884;2022-08-06T05:01:11;9.93;;;7.97;;
19262;SDS011;9765;52.354;20.884;2022-08-06T05:03:37;14.47;;;7.63;;
19262;SDS011;9765;52.354;20.884;2022-08-06T05:06:08;12.33;;;7.27;;
19262;SDS011;9765;52.354;20.884;2022-08-06T05:08:38;10.57;;;6.93;;
19262;SDS011;9765;52.354;20.884;2022-08-06T05:11:09;10.70;;;6.73;;
19262;SDS011;9765;52.354;20.884;2022-08-06T05:13:38;9.13;;;6.33;;
19262;SDS011;9765;52.354;20.884;2022-08-06T05:16:07;14.73;;;6.90;;
19262;SDS011;9765;52.354;20.884;2022-08-06T05:18:38;10.60;;;6.47;;
19262;SDS011;9765;52.354;20.884;2022-08-06T05:21:10;10.57;;;5.87;;
19262;SDS011;9765;52.354;20.884;2022-08-06T05:23:47;19.77;;;6.47;;
19262;SDS011;9765;52.354;20.884;2022-08-06T05:26:16;9.20;;;6.20;;
19262;SDS011;9765;52.354;20.884;2022-08-06T05:28:42;10.37;;;5.97;;
19262;SDS011;9765;52.354;20.884;2022-08-06T05:31:09;11.40;;;5.90;;
19262;SDS011;9765;52.354;20.884;2022-08-06T05:33:37;11.43;;;5.80;;
19262;SDS011;9765;52.354;20.884;2022-08-06T05:36:05;10.60;;;5.47;;
19262;SDS011;9765;52.354;20.884;2022-08-06T05:38:35;11.17;;;5.43;;
19262;SDS011;9765;52.354;20.884;2022-08-06T05:41:03;7.80;;;5.40;;
19262;SDS011;9765;52.354;20.884;2022-08-06T05:43:31;8.00;;;5.57;;
19262;SDS011;9765;52.354;20.884;2022-08-06T05:45:58;11.97;;;5.53;;
19262;SDS011;9765;52.354;20.884;2022-08-06T05:48:28;9.30;;;5.53;;
19262;SDS011;9765;52.354;20.884;2022-08-06T05:50:58;8.63;;;5.33;;
19262;SDS011;9765;52.354;20.884;2022-08-06T05:53:30;9.93;;;6.10;;
19262;SDS011;9765;52.354;20.884;2022-08-06T05:56:02;8.97;;;5.93;;
19262;SDS011;9765;52.354;20.884;2022-08-06T05:58:33;9.60;;;5.80;;
19262;SDS011;9765;52.354;20.884;2022-08-06T06:01:03;8.23;;;6.87;;
19262;SDS011;9765;52.354;20.884;2022-08-06T06:03:32;8.77;;;6.47;;
19262;SDS011;9765;52.354;20.884;2022-08-06T06:06:01;19.07;;;7.47;;
19262;SDS011;9765;52.354;20.884;2022-08-06T06:08:28;12.63;;;6.40;;
19262;SDS011;9765;52.354;20.884;2022-08-06T06:10:56;8.17;;;5.90;;
19262;SDS011;9765;52.354;20.884;2022-08-06T06:13:24;10.47;;;6.50;;
19262;SDS011;9765;52.354;20.884;2022-08-06T06:15:53;16.40;;;6.83;;
19262;SDS011;9765;52.354;20.884;2022-08-06T06:18:30;15.83;;;7.03;;
19262;SDS011;9765;52.354;20.884;2022-08-06T06:21:14;12.70;;;7.07;;
19262;SDS011;9765;52.354;20.884;2022-08-06T06:23:49;14.70;;;7.00;;
19262;SDS011;9765;52.354;20.884;2022-08-06T06:26:21;14.20;;;7.77;;
19262;SDS011;9765;52.354;20.884;2022-08-06T06:29:15;37.37;;;8.33;;
19262;SDS011;9765;52.354;20.884;2022-08-06T06:31:56;14.57;;;6.83;;
19262;SDS011;9765;52.354;20.884;2022-08-06T06:34:29;15.03;;;7.23;;
19262;SDS011;9765;52.354;20.884;2022-08-06T06:37:03;13.00;;;7.30;;
19262;SDS011;9765;52.354;20.884;2022-08-06T06:39:36;8.93;;;6.43;;
19262;SDS011;9765;52.354;20.884;2022-08-06T06:42:07;12.37;;;6.97;;
19262;SDS011;9765;52.354;20.884;2022-08-06T06:44:41;12.17;;;6.87;;
19262;SDS011;9765;52.354;20.884;2022-08-06T06:47:14;11.30;;;6.23;;
19262;SDS011;9765;52.354;20.884;2022-08-06T06:49:44;8.60;;;5.80;;
19262;SDS011;9765;52.354;20.884;2022-08-06T06:52:18;8.80;;;5.93;;
19262;SDS011;9765;52.354;20.884;2022-08-06T06:54:50;13.63;;;6.30;;
19262;SDS011;9765;52.354;20.884;2022-08-06T06:57:20;11.37;;;5.57;;
19262;SDS011;9765;52.354;20.884;2022-08-06T06:59:53;7.63;;;5.13;;
19262;SDS011;9765;52.354;20.884;2022-08-06T07:02:23;8.37;;;5.37;;
19262;SDS011;9765;52.354;20.884;2022-08-06T07:04:53;10.13;;;5.23;;
19262;SDS011;9765;52.354;20.884;2022-08-06T07:07:21;9.77;;;5.30;;
19262;SDS011;9765;52.354;20.884;2022-08-06T07:09:48;6.23;;;4.10;;
19262;SDS011;9765;52.354;20.884;2022-08-06T07:12:18;24.10;;;5.37;;
19262;SDS011;9765;52.354;20.884;2022-08-06T07:14:48;8.43;;;4.97;;
19262;SDS011;9765;52.354;20.884;2022-08-06T07:17:17;5.07;;;4.10;;
19262;SDS011;9765;52.354;20.884;2022-08-06T07:19:46;7.03;;;4.00;;
19262;SDS011;9765;52.354;20.884;2022-08-06T07:22:14;6.83;;;4.00;;
19262;SDS011;9765;52.354;20.884;2022-08-06T08:14:12;3.50;;;1.90;;
19262;SDS011;9765;52.354;20.884;2022-08-06T08:16:42;6.97;;;2.30;;
19262;SDS011;9765;52.354;20.884;2022-08-06T08:19:22;5.50;;;2.00;;
19262;SDS011;9765;52.354;20.884;2022-08-06T08:21:51;5.50;;;2.10;;
19262;SDS011;9765;52.354;20.884;2022-08-06T08:24:21;3.47;;;2.10;;
19262;SDS011;9765;52.354;20.884;2022-08-06T08:26:48;4.57;;;2.20;;
19262;SDS011;9765;52.354;20.884;2022-08-06T08:29:16;4.17;;;2.20;;
19262;SDS011;9765;52.354;20.884;2022-08-06T08:31:43;5.80;;;1.80;;
19262;SDS011;9765;52.354;20.884;2022-08-06T08:34:12;5.97;;;2.37;;
19262;SDS011;9765;52.354;20.884;2022-08-06T08:36:39;4.37;;;1.87;;
19262;SDS011;9765;52.354;20.884;2022-08-06T08:39:06;3.93;;;2.30;;
19262;SDS011;9765;52.354;20.884;2022-08-06T08:41:34;5.00;;;2.30;;
19262;SDS011;9765;52.354;20.884;2022-08-06T08:44:05;3.13;;;1.90;;
19262;SDS011;9765;52.354;20.884;2022-08-06T08:46:37;4.80;;;2.27;;
19262;SDS011;9765;52.354;20.884;2022-08-06T08:49:05;4.20;;;2.60;;
19262;SDS011;9765;52.354;20.884;2022-08-06T08:51:34;4.73;;;2.00;;
19262;SDS011;9765;52.354;20.884;2022-08-06T08:54:05;4.70;;;2.33;;
19262;SDS011;9765;52.354;20.884;2022-08-06T08:56:33;2.60;;;2.20;;
19262;SDS011;9765;52.354;20.884;2022-08-06T08:59:02;4.77;;;2.40;;
19262;SDS011;9765;52.354;20.884;2022-08-06T09:01:30;6.53;;;2.20;;
19262;SDS011;9765;52.354;20.884;2022-08-06T09:03:58;5.47;;;1.97;;
19262;SDS011;9765;52.354;20.884;2022-08-06T09:06:28;5.10;;;2.60;;
19262;SDS011;9765;52.354;20.884;2022-08-06T09:08:57;5.40;;;2.17;;
19262;SDS011;9765;52.354;20.884;2022-08-06T09:11:28;4.17;;;2.23;;
19262;SDS011;9765;52.354;20.884;2022-08-06T09:13:55;4.00;;;2.30;;
19262;SDS011;9765;52.354;20.884;2022-08-06T09:16:22;6.13;;;2.30;;
19262;SDS011;9765;52.354;20.884;2022-08-06T09:18:49;3.50;;;2.37;;
19262;SDS011;9765;52.354;20.884;2022-08-06T09:21:17;4.57;;;2.63;;
19262;SDS011;9765;52.354;20.884;2022-08-06T09:23:43;5.67;;;2.43;;
19262;SDS011;9765;52.354;20.884;2022-08-06T09:26:11;3.77;;;2.30;;
19262;SDS011;9765;52.354;20.884;2022-08-06T09:28:38;11.83;;;2.87;;
19262;SDS011;9765;52.354;20.884;2022-08-06T09:31:07;5.93;;;2.80;;
19262;SDS011;9765;52.354;20.884;2022-08-06T09:33:37;6.23;;;2.63;;
19262;SDS011;9765;52.354;20.884;2022-08-06T09:36:06;4.97;;;2.60;;
19262;SDS011;9765;52.354;20.884;2022-08-06T09:38:45;7.13;;;2.83;;
19262;SDS011;9765;52.354;20.884;2022-08-06T09:41:13;3.97;;;2.30;;
19262;SDS011;9765;52.354;20.884;2022-08-06T09:43:41;3.57;;;2.33;;
19262;SDS011;9765;52.354;20.884;2022-08-06T09:46:08;5.47;;;2.57;;
19262;SDS011;9765;52.354;20.884;2022-08-06T09:48:35;5.43;;;2.20;;
19262;SDS011;9765;52.354;20.884;2022-08-06T09:51:02;6.40;;;2.93;;
19262;SDS011;9765;52.354;20.884;2022-08-06T09:53:29;4.53;;;2.37;;
19262;SDS011;9765;52.354;20.884;2022-08-06T09:55:57;10.20;;;2.20;;
19262;SDS011;9765;52.354;20.884;2022-08-06T09:58:30;4.83;;;1.90;;
19262;SDS011;9765;52.354;20.884;2022-08-06T10:01:12;5.20;;;2.17;;
19262;SDS011;9765;52.354;20.884;2022-08-06T10:03:40;6.20;;;1.87;;
19262;SDS011;9765;52.354;20.884;2022-08-06T10:06:08;4.53;;;1.90;;
19262;SDS011;9765;52.354;20.884;2022-08-06T10:08:36;5.43;;;1.93;;
19262;SDS011;9765;52.354;20.884;2022-08-06T10:11:05;3.80;;;1.73;;
19262;SDS011;9765;52.354;20.884;2022-08-06T10:13:32;5.20;;;1.80;;
19262;SDS011;9765;52.354;20.884;2022-08-06T10:16:01;3.47;;;1.73;;
19262;SDS011;9765;52.354;20.884;2022-08-06T10:18:42;2.93;;;1.80;;
19262;SDS011;9765;52.354;20.884;2022-08-06T10:21:10;2.53;;;1.50;;
19262;SDS011;9765;52.354;20.884;2022-08-06T10:23:39;2.37;;;1.40;;
19262;SDS011;9765;52.354;20.884;2022-08-06T10:26:09;2.50;;;1.50;;
19262;SDS011;9765;52.354;20.884;2022-08-06T10:28:37;5.37;;;1.60;;
19262;SDS011;9765;52.354;20.884;2022-08-06T10:31:06;5.53;;;1.83;;
19262;SDS011;9765;52.354;20.884;2022-08-06T10:33:36;3.83;;;1.60;;
19262;SDS011;9765;52.354;20.884;2022-08-06T10:36:08;4.60;;;1.50;;
19262;SDS011;9765;52.354;20.884;2022-08-06T10:38:35;4.80;;;1.80;;
19262;SDS011;9765;52.354;20.884;2022-08-06T10:41:06;6.73;;;1.70;;
19262;SDS011;9765;52.354;20.884;2022-08-06T10:43:35;3.30;;;1.30;;
19262;SDS011;9765;52.354;20.884;2022-08-06T10:46:04;6.27;;;1.90;;
19262;SDS011;9765;52.354;20.884;2022-08-06T10:48:34;4.50;;;1.43;;
19262;SDS011;9765;52.354;20.884;2022-08-06T10:51:01;4.13;;;1.80;;
19262;SDS011;9765;52.354;20.884;2022-08-06T10:53:30;4.57;;;1.43;;
19262;SDS011;9765;52.354;20.884;2022-08-06T10:55:59;3.60;;;1.70;;
19262;SDS011;9765;52.354;20.884;2022-08-06T10:58:28;4.03;;;1.90;;
19262;SDS011;9765;52.354;20.884;2022-08-06T11:00:57;4.40;;;1.77;;
19262;SDS011;9765;52.354;20.884;2022-08-06T11:03:28;4.90;;;1.50;;
19262;SDS011;9765;52.354;20.884;2022-08-06T11:06:08;3.23;;;1.23;;
19262;SDS011;9765;52.354;20.884;2022-08-06T11:08:52;4.10;;;1.57;;
19262;SDS011;9765;52.354;20.884;2022-08-06T11:11:35;3.13;;;1.50;;
19262;SDS011;9765;52.354;20.884;2022-08-06T11:14:09;5.73;;;1.73;;
19262;SDS011;9765;52.354;20.884;2022-08-06T11:16:40;3.90;;;1.60;;
19262;SDS011;9765;52.354;20.884;2022-08-06T11:19:07;6.30;;;1.93;;
19262;SDS011;9765;52.354;20.884;2022-08-06T11:21:36;4.60;;;1.83;;
19262;SDS011;9765;52.354;20.884;2022-08-06T11:24:04;6.73;;;1.80;;
19262;SDS011;9765;52.354;20.884;2022-08-06T11:26:32;3.37;;;1.37;;
19262;SDS011;9765;52.354;20.884;2022-08-06T11:29:01;3.87;;;1.40;;
19262;SDS011;9765;52.354;20.884;2022-08-06T11:31:29;6.37;;;1.57;;
19262;SDS011;9765;52.354;20.884;2022-08-06T11:33:59;3.57;;;1.40;;
19262;SDS011;9765;52.354;20.884;2022-08-06T11:36:27;4.00;;;1.93;;
19262;SDS011;9765;52.354;20.884;2022-08-06T11:39:08;2.57;;;1.50;;
19262;SDS011;9765;52.354;20.884;2022-08-06T11:41:42;5.57;;;1.43;;
19262;SDS011;9765;52.354;20.884;2022-08-06T11:44:14;4.70;;;1.60;;
19262;SDS011;9765;52.354;20.884;2022-08-06T11:46:42;3.17;;;1.60;;
19262;SDS011;9765;52.354;20.884;2022-08-06T11:52:01;4.80;;;1.60;;
19262;SDS011;9765;52.354;20.884;2022-08-06T11:54:29;2.47;;;1.60;;
19262;SDS011;9765;52.354;20.884;2022-08-06T12:00:11;4.00;;;1.60;;
19262;SDS011;9765;52.354;20.884;2022-08-06T12:02:44;4.47;;;2.23;;
19262;SDS011;9765;52.354;20.884;2022-08-06T12:08:12;4.93;;;2.10;;
19262;SDS011;9765;52.354;20.884;2022-08-06T12:13:52;9.97;;;2.40;;
19262;SDS011;9765;52.354;20.884;2022-08-06T12:16:32;7.47;;;1.50;;
19262;SDS011;9765;52.354;20.884;2022-08-06T12:19:05;3.17;;;1.50;;
19262;SDS011;9765;52.354;20.884;2022-08-06T12:21:38;2.87;;;1.40;;
19262;SDS011;9765;52.354;20.884;2022-08-06T12:24:07;4.40;;;1.53;;
19262;SDS011;9765;52.354;20.884;2022-08-06T12:26:34;4.40;;;1.70;;
19262;SDS011;9765;52.354;20.884;2022-08-06T12:29:05;2.47;;;1.67;;
19262;SDS011;9765;52.354;20.884;2022-08-06T12:31:34;7.30;;;2.10;;
19262;SDS011;9765;52.354;20.884;2022-08-06T12:34:02;4.07;;;2.00;;
19262;SDS011;9765;52.354;20.884;2022-08-06T12:36:30;7.60;;;1.80;;
19262;SDS011;9765;52.354;20.884;2022-08-06T12:39:01;3.30;;;2.07;;
19262;SDS011;9765;52.354;20.884;2022-08-06T12:41:31;6.17;;;1.80;;
19262;SDS011;9765;52.354;20.884;2022-08-06T12:43:59;3.27;;;1.80;;
19262;SDS011;9765;52.354;20.884;2022-08-06T12:46:26;6.00;;;1.90;;
19262;SDS011;9765;52.354;20.884;2022-08-06T12:48:53;4.90;;;2.03;;
19262;SDS011;9765;52.354;20.884;2022-08-06T12:51:20;8.33;;;2.73;;
19262;SDS011;9765;52.354;20.884;2022-08-06T12:53:48;6.23;;;2.90;;
19262;SDS011;9765;52.354;20.884;2022-08-06T12:56:17;4.27;;;2.20;;
19262;SDS011;9765;52.354;20.884;2022-08-06T12:58:44;6.47;;;2.20;;
19262;SDS011;9765;52.354;20.884;2022-08-06T13:01:12;5.83;;;1.90;;
19262;SDS011;9765;52.354;20.884;2022-08-06T13:03:41;5.40;;;1.63;;
19262;SDS011;9765;52.354;20.884;2022-08-06T13:06:09;4.23;;;1.67;;
19262;SDS011;9765;52.354;20.884;2022-08-06T13:08:37;4.03;;;1.60;;
19262;SDS011;9765;52.354;20.884;2022-08-06T13:11:04;5.70;;;1.50;;
19262;SDS011;9765;52.354;20.884;2022-08-06T13:13:37;5.80;;;1.73;;
19262;SDS011;9765;52.354;20.884;2022-08-06T13:16:06;5.13;;;1.80;;
19262;SDS011;9765;52.354;20.884;2022-08-06T13:18:35;10.70;;;2.00;;
19262;SDS011;9765;52.354;20.884;2022-08-06T13:21:03;6.60;;;2.00;;
19262;SDS011;9765;52.354;20.884;2022-08-06T13:23:43;8.70;;;1.87;;
19262;SDS011;9765;52.354;20.884;2022-08-06T13:26:12;9.67;;;1.70;;
19262;SDS011;9765;52.354;20.884;2022-08-06T13:29:01;5.77;;;1.60;;
19262;SDS011;9765;52.354;20.884;2022-08-06T13:31:36;4.50;;;1.40;;
19262;SDS011;9765;52.354;20.884;2022-08-06T13:34:04;5.23;;;2.10;;
19262;SDS011;9765;52.354;20.884;2022-08-06T13:36:34;8.67;;;1.97;;
19262;SDS011;9765;52.354;20.884;2022-08-06T13:39:16;4.30;;;1.60;;
19262;SDS011;9765;52.354;20.884;2022-08-06T13:41:43;5.43;;;1.60;;
19262;SDS011;9765;52.354;20.884;2022-08-06T13:46:53;4.43;;;1.60;;
19262;SDS011;9765;52.354;20.884;2022-08-06T13:49:20;2.47;;;1.20;;
19262;SDS011;9765;52.354;20.884;2022-08-06T13:51:47;5.60;;;1.50;;
19262;SDS011;9765;52.354;20.884;2022-08-06T13:54:13;5.00;;;1.20;;
19262;SDS011;9765;52.354;20.884;2022-08-06T13:56:40;5.97;;;1.73;;
19262;SDS011;9765;52.354;20.884;2022-08-06T13:59:07;6.13;;;1.47;;
19262;SDS011;9765;52.354;20.884;2022-08-06T14:01:35;2.50;;;1.23;;
19262;SDS011;9765;52.354;20.884;2022-08-06T14:04:02;5.73;;;1.50;;
19262;SDS011;9765;52.354;20.884;2022-08-06T14:06:29;6.37;;;1.47;;
19262;SDS011;9765;52.354;20.884;2022-08-06T14:08:56;8.83;;;2.03;;
19262;SDS011;9765;52.354;20.884;2022-08-06T14:11:23;3.97;;;1.80;;
19262;SDS011;9765;52.354;20.884;2022-08-06T14:13:49;6.07;;;1.30;;
19262;SDS011;9765;52.354;20.884;2022-08-06T14:16:16;4.77;;;1.30;;
19262;SDS011;9765;52.354;20.884;2022-08-06T14:18:44;4.63;;;1.20;;
19262;SDS011;9765;52.354;20.884;2022-08-06T14:21:10;5.03;;;1.10;;
19262;SDS011;9765;52.354;20.884;2022-08-06T14:23:37;6.57;;;1.40;;
19262;SDS011;9765;52.354;20.884;2022-08-06T14:26:04;4.10;;;1.20;;
19262;SDS011;9765;52.354;20.884;2022-08-06T14:28:32;6.07;;;1.30;;
19262;SDS011;9765;52.354;20.884;2022-08-06T14:30:59;7.07;;;1.50;;
19262;SDS011;9765;52.354;20.884;2022-08-06T14:33:25;4.17;;;1.30;;
19262;SDS011;9765;52.354;20.884;2022-08-06T14:35:54;6.70;;;1.53;;
19262;SDS011;9765;52.354;20.884;2022-08-06T14:38:20;5.23;;;2.10;;
19262;SDS011;9765;52.354;20.884;2022-08-06T14:40:48;5.33;;;2.37;;
19262;SDS011;9765;52.354;20.884;2022-08-06T14:43:32;10.30;;;2.63;;
19262;SDS011;9765;52.354;20.884;2022-08-06T14:46:16;10.87;;;3.13;;
19262;SDS011;9765;52.354;20.884;2022-08-06T14:48:43;9.40;;;3.10;;
19262;SDS011;9765;52.354;20.884;2022-08-06T14:51:10;13.33;;;5.93;;
19262;SDS011;9765;52.354;20.884;2022-08-06T14:53:37;9.67;;;4.50;;
19262;SDS011;9765;52.354;20.884;2022-08-06T14:56:04;13.00;;;5.57;;
19262;SDS011;9765;52.354;20.884;2022-08-06T14:58:31;9.13;;;3.20;;
19262;SDS011;9765;52.354;20.884;2022-08-06T15:00:57;8.67;;;2.93;;
19262;SDS011;9765;52.354;20.884;2022-08-06T15:03:24;3.57;;;2.17;;
19262;SDS011;9765;52.354;20.884;2022-08-06T15:05:52;4.60;;;1.33;;
19262;SDS011;9765;52.354;20.884;2022-08-06T15:08:20;4.13;;;1.10;;
19262;SDS011;9765;52.354;20.884;2022-08-06T15:10:47;5.87;;;2.03;;
19262;SDS011;9765;52.354;20.884;2022-08-06T15:13:13;3.90;;;1.87;;
19262;SDS011;9765;52.354;20.884;2022-08-06T15:15:40;6.57;;;1.33;;
19262;SDS011;9765;52.354;20.884;2022-08-06T15:18:06;7.87;;;2.77;;
19262;SDS011;9765;52.354;20.884;2022-08-06T15:20:33;2.30;;;1.20;;
19262;SDS011;9765;52.354;20.884;2022-08-06T15:23:00;4.50;;;2.20;;
19262;SDS011;9765;52.354;20.884;2022-08-06T15:25:29;4.83;;;1.67;;
19262;SDS011;9765;52.354;20.884;2022-08-06T15:27:55;5.33;;;1.13;;
19262;SDS011;9765;52.354;20.884;2022-08-06T15:30:22;6.70;;;1.60;;
19262;SDS011;9765;52.354;20.884;2022-08-06T15:32:48;9.10;;;1.70;;
19262;SDS011;9765;52.354;20.884;2022-08-06T15:35:15;2.27;;;1.53;;
19262;SDS011;9765;52.354;20.884;2022-08-06T15:37:42;2.97;;;1.23;;
19262;SDS011;9765;52.354;20.884;2022-08-06T15:40:09;6.67;;;1.20;;
19262;SDS011;9765;52.354;20.884;2022-08-06T15:42:37;2.90;;;1.10;;
19262;SDS011;9765;52.354;20.884;2022-08-06T15:45:05;2.23;;;0.97;;
19262;SDS011;9765;52.354;20.884;2022-08-06T15:47:32;2.27;;;1.03;;
19262;SDS011;9765;52.354;20.884;2022-08-06T15:49:59;1.97;;;1.00;;
19262;SDS011;9765;52.354;20.884;2022-08-06T15:52:26;1.93;;;1.03;;
19262;SDS011;9765;52.354;20.884;2022-08-06T15:54:53;5.47;;;1.30;;
19262;SDS011;9765;52.354;20.884;2022-08-06T15:57:20;2.60;;;1.10;;
19262;SDS011;9765;52.354;20.884;2022-08-06T15:59:49;5.00;;;1.20;;
19262;SDS011;9765;52.354;20.884;2022-08-06T16:02:15;3.83;;;1.07;;
19262;SDS011;9765;52.354;20.884;2022-08-06T16:04:42;6.23;;;1.23;;
19262;SDS011;9765;52.354;20.884;2022-08-06T16:07:09;3.77;;;1.17;;
19262;SDS011;9765;52.354;20.884;2022-08-06T16:09:36;7.47;;;1.13;;
19262;SDS011;9765;52.354;20.884;2022-08-06T16:12:03;4.23;;;1.10;;
19262;SDS011;9765;52.354;20.884;2022-08-06T16:14:30;4.67;;;1.17;;
19262;SDS011;9765;52.354;20.884;2022-08-06T16:16:58;2.37;;;0.90;;
19262;SDS011;9765;52.354;20.884;2022-08-06T16:19:25;6.80;;;1.10;;
19262;SDS011;9765;52.354;20.884;2022-08-06T16:21:52;3.83;;;0.90;;
19262;SDS011;9765;52.354;20.884;2022-08-06T16:24:19;3.57;;;0.97;;
19262;SDS011;9765;52.354;20.884;2022-08-06T16:26:45;3.97;;;1.30;;
19262;SDS011;9765;52.354;20.884;2022-08-06T16:29:12;3.93;;;1.07;;
19262;SDS011;9765;52.354;20.884;2022-08-06T16:31:39;5.50;;;1.43;;
19262;SDS011;9765;52.354;20.884;2022-08-06T16:34:07;1.97;;;1.00;;
19262;SDS011;9765;52.354;20.884;2022-08-06T16:36:34;2.00;;;1.10;;
19262;SDS011;9765;52.354;20.884;2022-08-06T16:39:01;3.67;;;1.07;;
19262;SDS011;9765;52.354;20.884;2022-08-06T16:41:28;1.87;;;1.03;;
19262;SDS011;9765;52.354;20.884;2022-08-06T16:43:55;2.20;;;1.07;;
19262;SDS011;9765;52.354;20.884;2022-08-06T16:46:22;3.90;;;1.00;;
19262;SDS011;9765;52.354;20.884;2022-08-06T16:48:49;6.93;;;1.00;;
19262;SDS011;9765;52.354;20.884;2022-08-06T16:51:17;3.80;;;0.97;;
19262;SDS011;9765;52.354;20.884;2022-08-06T16:53:43;4.47;;;1.10;;
19262;SDS011;9765;52.354;20.884;2022-08-06T16:56:10;2.10;;;1.17;;
19262;SDS011;9765;52.354;20.884;2022-08-06T16:58:36;3.63;;;1.17;;
19262;SDS011;9765;52.354;20.884;2022-08-06T17:01:04;2.57;;;1.13;;
19262;SDS011;9765;52.354;20.884;2022-08-06T17:03:31;3.53;;;1.10;;
19262;SDS011;9765;52.354;20.884;2022-08-06T17:05:58;6.63;;;1.40;;
19262;SDS011;9765;52.354;20.884;2022-08-06T17:08:26;5.03;;;1.20;;
19262;SDS011;9765;52.354;20.884;2022-08-06T17:10:52;5.43;;;1.37;;
19262;SDS011;9765;52.354;20.884;2022-08-06T17:13:19;4.33;;;1.10;;
19262;SDS011;9765;52.354;20.884;2022-08-06T17:15:46;2.10;;;1.30;;
19262;SDS011;9765;52.354;20.884;2022-08-06T17:18:12;4.07;;;1.20;;
19262;SDS011;9765;52.354;20.884;2022-08-06T17:20:39;1.90;;;1.07;;
19262;SDS011;9765;52.354;20.884;2022-08-06T17:23:06;3.63;;;1.27;;
19262;SDS011;9765;52.354;20.884;2022-08-06T17:25:34;4.17;;;1.13;;
19262;SDS011;9765;52.354;20.884;2022-08-06T17:28:01;5.37;;;1.00;;
19262;SDS011;9765;52.354;20.884;2022-08-06T17:30:28;3.27;;;1.10;;
19262;SDS011;9765;52.354;20.884;2022-08-06T17:32:55;5.30;;;1.30;;
19262;SDS011;9765;52.354;20.884;2022-08-06T17:35:21;2.57;;;1.40;;
19262;SDS011;9765;52.354;20.884;2022-08-06T17:37:48;4.57;;;1.70;;
19262;SDS011;9765;52.354;20.884;2022-08-06T17:40:16;2.33;;;1.20;;
19262;SDS011;9765;52.354;20.884;2022-08-06T17:42:48;3.53;;;1.20;;
19262;SDS011;9765;52.354;20.884;2022-08-06T17:45:15;5.17;;;1.47;;
19262;SDS011;9765;52.354;20.884;2022-08-06T17:47:43;6.47;;;2.17;;
19262;SDS011;9765;52.354;20.884;2022-08-06T17:50:09;2.63;;;1.47;;
